Time;durP1;ratioP1;P1;durP2;ratioP2;P2;SDS_P1;SDS_P2;PMS_P1;PMS_P2;Temp;Humidity;BMP_temperature;BMP_pressure;BME280_temperature;BME280_humidity;BME280_pressure;Samples;Min_cycle;Max_cycle;Signal;HPM_P1;HPM_P2
2023/08/10 00:00:12;;;;;;;2.58;2.10;;;14.20;99.90;;;;;;5133886;27;20034;-71
2023/08/10 00:02:39;;;;;;;2.78;2.08;;;14.10;99.90;;;;;;5134739;27;20468;-72
2023/08/10 00:05:05;;;;;;;3.25;1.73;;;14.10;99.90;;;;;;5134050;27;20114;-71
2023/08/10 00:07:31;;;;;;;2.20;2.00;;;14.10;99.90;;;;;;5134049;27;20030;-72
2023/08/10 00:09:57;;;;;;;5.43;1.90;;;14.20;99.90;;;;;;5133155;27;20032;-71
2023/08/10 00:12:23;;;;;;;3.95;2.50;;;14.20;99.90;;;;;;5134584;27;20027;-71
2023/08/10 00:14:49;;;;;;;4.05;2.30;;;14.10;99.90;;;;;;5134831;27;20031;-72
2023/08/10 00:17:16;;;;;;;2.67;2.25;;;14.10;99.90;;;;;;5133808;27;20666;-72
2023/08/10 00:19:42;;;;;;;3.45;2.10;;;14.10;99.90;;;;;;5119096;27;20047;-71
2023/08/10 00:22:08;;;;;;;2.65;2.10;;;14.00;99.90;;;;;;5112912;28;20041;-71
2023/08/10 00:24:34;;;;;;;2.78;2.28;;;;;;;;;;5113581;28;20031;-70
2023/08/10 00:26:59;;;;;;;2.67;2.10;;;13.90;99.90;;;;;;5099910;27;20019;-70
2023/08/10 00:29:26;;;;;;;2.47;2.28;;;13.80;99.90;;;;;;5133768;27;20130;-70
2023/08/10 00:31:52;;;;;;;2.30;2.10;;;13.70;99.90;;;;;;5133909;27;20080;-70
2023/08/10 00:34:18;;;;;;;2.53;2.33;;;13.50;99.90;;;;;;5133795;27;20134;-70
2023/08/10 00:36:43;;;;;;;3.05;2.45;;;13.60;99.90;;;;;;5134620;27;20480;-71
2023/08/10 00:39:09;;;;;;;4.05;2.08;;;13.50;99.90;;;;;;5133343;27;20106;-70
2023/08/10 00:41:35;;;;;;;3.92;2.42;;;;;;;;;;5134109;27;20418;-70
2023/08/10 00:44:01;;;;;;;3.22;2.90;;;;;;;;;;5133371;27;20023;-70
2023/08/10 00:46:26;;;;;;;2.70;2.38;;;13.50;99.90;;;;;;5133925;27;20023;-71
2023/08/10 00:48:53;;;;;;;5.28;2.55;;;13.50;99.90;;;;;;5133953;27;20079;-71
2023/08/10 00:51:18;;;;;;;2.42;2.20;;;13.30;99.90;;;;;;5132945;27;20443;-70
2023/08/10 00:53:44;;;;;;;2.67;2.17;;;13.30;99.90;;;;;;5133909;27;20027;-70
2023/08/10 00:56:11;;;;;;;2.88;2.50;;;13.20;99.90;;;;;;5133148;27;20464;-70
2023/08/10 00:58:37;;;;;;;4.45;2.78;;;13.10;99.90;;;;;;5133734;27;20065;-70
2023/08/10 01:01:04;;;;;;;3.15;2.17;;;13.10;99.90;;;;;;5132903;27;20120;-70
2023/08/10 01:03:30;;;;;;;3.75;2.78;;;13.00;99.90;;;;;;5133796;27;20038;-71
2023/08/10 01:06:17;;;;;;;4.78;2.60;;;12.90;99.90;;;;;;5133125;27;20038;-70
2023/08/10 01:09:20;;;;;;;2.90;2.53;;;;;;;;;;5133782;27;20062;-71
2023/08/10 01:11:53;;;;;;;5.60;2.88;;;;;;;;;;5133415;27;20094;-70
2023/08/10 01:14:22;;;;;;;4.03;3.03;;;12.70;99.90;;;;;;5132902;27;20027;-71
2023/08/10 01:16:50;;;;;;;3.65;3.20;;;12.70;99.90;;;;;;5133375;27;20037;-70
2023/08/10 01:19:35;;;;;;;5.47;3.15;;;12.70;99.90;;;;;;5132251;27;20031;-70
2023/08/10 01:22:20;;;;;;;4.63;3.42;;;;;;;;;;5132612;27;20088;-70
2023/08/10 01:24:53;;;;;;;3.88;3.58;;;;;;;;;;5133271;27;20084;-71
2023/08/10 01:27:19;;;;;;;5.72;3.22;;;;;;;;;;5124493;27;20091;-72
2023/08/10 01:29:45;;;;;;;4.10;3.20;;;;;;;;;;5112324;28;20048;-71
2023/08/10 01:32:14;;;;;;;4.30;3.30;;;;;;;;;;5111896;28;20032;-70
2023/08/10 01:34:40;;;;;;;4.63;3.47;;;;;;;;;;5112740;28;20051;-70
2023/08/10 01:37:06;;;;;;;4.35;3.25;;;;;;;;;;5111872;28;20389;-70
2023/08/10 01:39:32;;;;;;;3.22;2.90;;;;;;;;;;5112573;28;20081;-71
2023/08/10 01:41:58;;;;;;;3.95;3.00;;;;;;;;;;5112528;28;20065;-70
2023/08/10 01:44:24;;;;;;;5.15;3.60;;;;;;;;;;5112786;28;20506;-70
2023/08/10 01:46:53;;;;;;;3.88;3.10;;;;;;;;;;5112361;28;20020;-71
2023/08/10 01:49:21;;;;;;;4.47;3.35;;;;;;;;;;5111778;28;20066;-70
2023/08/10 01:51:48;;;;;;;3.90;3.50;;;;;;;;;;5112673;28;20024;-70
2023/08/10 01:54:16;;;;;;;5.75;3.83;;;;;;;;;;5111618;28;20032;-70
2023/08/10 01:56:42;;;;;;;4.43;3.63;;;;;;;;;;5112418;28;20028;-70
2023/08/10 01:59:08;;;;;;;4.47;3.90;;;;;;;;;;5111675;28;20027;-70
2023/08/10 02:01:34;;;;;;;4.03;3.45;;;;;;;;;;5112648;28;20035;-70
2023/08/10 02:04:00;;;;;;;3.50;3.20;;;;;;;;;;5112116;28;20035;-70
2023/08/10 02:06:26;;;;;;;4.53;3.90;;;;;;;;;;5111935;28;20019;-71
2023/08/10 02:08:52;;;;;;;5.03;3.75;;;;;;;;;;5112393;28;20081;-70
2023/08/10 02:11:18;;;;;;;4.35;3.95;;;;;;;;;;5111570;28;20035;-71
2023/08/10 02:13:45;;;;;;;4.07;3.78;;;;;;;;;;5112410;28;20016;-70
2023/08/10 02:16:11;;;;;;;5.47;3.60;;;;;;;;;;5111542;28;20015;-70
2023/08/10 02:18:38;;;;;;;5.00;3.85;;;;;;;;;;5112691;28;20026;-71
2023/08/10 02:21:05;;;;;;;4.93;3.45;;;;;;;;;;5111555;28;20024;-70
2023/08/10 02:23:31;;;;;;;4.28;3.88;;;;;;;;;;5112315;28;20062;-70
2023/08/10 02:25:57;;;;;;;4.82;3.97;;;;;;;;;;5112351;28;20114;-71
2023/08/10 02:28:23;;;;;;;4.65;4.10;;;;;;;;;;5128405;28;20457;-70
2023/08/10 02:30:50;;;;;;;4.30;3.88;;;;;;;;;;5132729;27;20035;-70
2023/08/10 02:33:16;;;;;;;3.95;3.05;;;;;;;;;;5135461;27;20066;-70
2023/08/10 02:35:42;;;;;;;4.65;3.70;;;;;;;;;;5136687;27;20051;-71
2023/08/10 02:38:08;;;;;;;3.60;3.30;;;;;;;;;;5135620;27;20065;-70
2023/08/10 02:40:34;;;;;;;4.55;4.05;;;;;;;;;;5136549;27;20031;-71
2023/08/10 02:43:00;;;;;;;4.28;3.78;;;;;;;;;;5136564;27;20372;-70
2023/08/10 02:45:26;;;;;;;8.23;4.18;;;;;;;;;;5135688;27;20015;-71
2023/08/10 02:47:52;;;;;;;5.00;4.10;;;;;;;;;;5136313;27;20501;-71
2023/08/10 02:50:19;;;;;;;4.70;3.72;;;;;;;;;;5135292;27;20031;-70
2023/08/10 02:52:45;;;;;;;4.85;3.90;;;;;;;;;;5136142;27;20018;-70
2023/08/10 02:55:11;;;;;;;4.57;4.18;;;;;;;;;;5135113;27;20482;-70
2023/08/10 02:57:37;;;;;;;6.22;4.20;;;;;;;;;;5143303;27;20051;-72
2023/08/10 03:00:06;;;;;;;6.13;3.95;;;;;;;;;;5147150;27;20039;-70
2023/08/10 03:02:32;;;;;;;4.50;3.97;;;;;;;;;;5147623;27;20027;-70
2023/08/10 03:04:59;;;;;;;6.18;4.45;;;;;;;;;;5147858;27;20101;-72
2023/08/10 03:07:26;;;;;;;8.82;4.68;;;;;;;;;;5147298;27;20343;-72
2023/08/10 03:09:52;;;;;;;5.03;4.57;;;;;;;;;;5143662;27;20027;-71
2023/08/10 03:12:18;;;;;;;6.38;4.68;;;;;;;;;;5135978;27;20053;-71
2023/08/10 03:14:44;;;;;;;6.30;4.97;;;;;;;;;;5136220;27;20450;-72
2023/08/10 03:17:10;;;;;;;5.88;4.72;;;;;;;;;;5135464;27;20099;-71
2023/08/10 03:19:36;;;;;;;5.47;4.43;;;;;;;;;;5135799;27;20110;-71
2023/08/10 03:22:02;;;;;;;5.38;4.82;;;;;;;;;;5135691;27;20023;-71
2023/08/10 03:24:28;;;;;;;6.20;5.18;;;;;;;;;;5135563;27;20015;-71
2023/08/10 03:26:54;;;;;;;6.65;4.78;;;;;;;;;;5131119;27;20106;-71
2023/08/10 03:29:20;;;;;;;4.90;4.50;;;;;;;;;;5113745;28;20043;-71
2023/08/10 03:31:46;;;;;;;5.18;4.68;;;;;;;;;;5115047;28;20111;-71
2023/08/10 03:34:12;;;;;;;5.35;4.85;;;;;;;;;;5114043;28;20138;-71
2023/08/10 03:36:38;;;;;;;5.70;5.07;;;;;;;;;;5114797;28;20095;-72
2023/08/10 03:39:04;;;;;;;6.68;4.63;;;;;;;;;;5114539;28;20480;-71
2023/08/10 03:41:30;;;;;;;6.10;4.57;;;;;;;;;;5113907;28;20016;-71
2023/08/10 03:43:56;;;;;;;5.63;4.72;;;;;;;;;;5096452;28;20349;-71
2023/08/10 03:46:22;;;;;;;5.30;4.78;;;;;;;;;;5095471;28;20069;-71
2023/08/10 03:48:48;;;;;;;4.50;4.10;;;;;;;;;;5096499;28;20375;-71
2023/08/10 03:51:14;;;;;;;4.78;4.30;;;;;;;;;;5113660;28;20031;-71
2023/08/10 03:53:40;;;;;;;4.45;4.00;;;;;;;;;;5114581;28;20055;-71
2023/08/10 03:56:06;;;;;;;4.50;4.10;;;;;;;;;;5095795;28;20031;-70
2023/08/10 03:58:33;;;;;;;5.78;4.72;;;;;;;;;;5114409;28;20073;-71
2023/08/10 04:00:59;;;;;;;5.38;4.50;;;;;;;;;;5114423;28;20106;-72
2023/08/10 04:03:25;;;;;;;5.78;5.20;;;;;;;;;;5113394;28;20107;-72
2023/08/10 04:05:51;;;;;;;6.78;5.03;;;;;;;;;;5114319;28;20024;-71
2023/08/10 04:08:17;;;;;;;5.57;4.50;;;;;;;;;;5113334;28;20483;-71
2023/08/10 04:10:43;;;;;;;5.18;4.68;;;;;;;;;;5114128;28;20119;-72
2023/08/10 04:13:09;;;;;;;9.23;5.22;;;;;;;;;;5113373;28;20597;-70
2023/08/10 04:15:36;;;;;;;5.40;4.78;;;;;;;;;;5114198;28;20041;-72
2023/08/10 04:18:02;;;;;;;10.00;6.20;;;;;;;;;;5113954;28;20358;-72
2023/08/10 04:20:28;;;;;;;5.57;4.82;;;;;;;;;;5113045;28;20106;-71
2023/08/10 04:22:57;;;;;;;7.43;4.82;;;;;;;;;;5113661;28;20028;-71
2023/08/10 04:25:23;;;;;;;5.97;5.25;;;;;;;;;;5112961;28;20046;-71
2023/08/10 04:27:49;;;;;;;8.02;5.20;;;;;;;;;;5125642;27;20448;-71
2023/08/10 04:30:15;;;;;;;5.57;4.72;;;;;;;;;;5132763;27;20047;-70
2023/08/10 04:32:41;;;;;;;5.80;5.20;;;;;;;;;;5134093;27;20360;-71
2023/08/10 04:35:07;;;;;;;5.95;5.35;;;;;;;;;;5134162;27;20046;-70
2023/08/10 04:37:33;;;;;;;5.72;4.63;;;;;;;;;;5133675;27;20049;-70
2023/08/10 04:39:59;;;;;;;5.47;4.50;;;;;;;;;;5134056;27;20050;-70
2023/08/10 04:42:25;;;;;;;4.88;4.38;;;;;;;;;;5133262;27;20455;-70
2023/08/10 04:44:51;;;;;;;5.13;4.63;;;;;;;;;;5133758;27;20032;-70
2023/08/10 04:47:17;;;;;;;6.13;5.25;;;;;;;;;;5133138;27;20519;-69
2023/08/10 04:49:43;;;;;;;6.90;5.30;;;;;;;;;;5133708;27;20027;-70
2023/08/10 04:52:09;;;;;;;5.25;4.75;;;;;;;;;;5133498;27;20019;-70
2023/08/10 04:54:35;;;;;;;5.68;5.10;;;;;;;;;;5133081;27;20066;-70
2023/08/10 04:57:01;;;;;;;5.05;4.57;;;;;;;;;;5133648;27;20452;-70
2023/08/10 04:59:27;;;;;;;7.05;5.28;;;;;;;;;;5132854;27;20042;-70
2023/08/10 05:01:54;;;;;;;5.47;4.97;;;;;;;;;;5133786;27;20488;-72
2023/08/10 05:04:20;;;;;;;4.93;4.43;;;;;;;;;;5133233;27;20054;-70
2023/08/10 05:06:46;;;;;;;5.78;4.68;;;;;;;;;;5133569;27;20115;-71
2023/08/10 05:09:12;;;;;;;4.47;4.05;;;;;;;;;;5132990;27;20026;-70
2023/08/10 05:11:38;;;;;;;5.00;4.57;;;;;;;;;;5133207;27;20408;-71
2023/08/10 05:14:04;;;;;;;5.57;5.05;;;;;;;;;;5133393;27;20027;-71
2023/08/10 05:16:30;;;;;;;5.75;5.25;;;;;;;;;;5132388;27;20702;-71
2023/08/10 05:18:56;;;;;;;5.05;4.57;;;;;;;;;;5133307;27;20027;-71
2023/08/10 05:21:22;;;;;;;5.10;4.60;;;;;;;;;;5132111;27;20084;-70
2023/08/10 05:23:48;;;;;;;5.15;4.65;;;;;;;;;;5133297;27;20464;-71
2023/08/10 05:26:14;;;;;;;5.88;5.30;;;;;;;;;;5132556;27;20091;-70
2023/08/10 05:28:40;;;;;;;7.80;5.85;;;;;;;;;;5113413;28;20044;-71
2023/08/10 05:31:06;;;;;;;7.30;5.20;;;;;;;;;;5112523;28;20032;-71
2023/08/10 05:33:32;;;;;;;6.70;5.78;;;;;;;;;;5111890;28;20020;-71
2023/08/10 05:35:58;;;;;;;7.15;5.60;;;;;;;;;;5112642;28;20068;-71
2023/08/10 05:38:26;;;;;;;5.07;4.55;;;;;;;;;;5111799;28;20023;-72
2023/08/10 05:40:52;;;;;;;5.60;4.72;;;;;;;;;;5112863;28;20023;-71
2023/08/10 05:43:18;;;;;;;5.40;4.90;;;;;;;;;;5111475;28;20532;-70
2023/08/10 05:45:44;;;;;;;7.78;5.47;;;;;;;;;;5112532;28;20050;-70
2023/08/10 05:48:11;;;;;;;5.72;4.82;;;;;;;;;;5112544;28;20520;-71
2023/08/10 05:50:37;;;;;;;6.90;5.53;;;;;;;;;;5111975;28;20120;-70
2023/08/10 05:53:03;;;;;;;5.68;5.07;;;;;;;;;;5112374;28;20499;-71
2023/08/10 05:55:29;;;;;;;6.55;5.20;;;;;;;;;;5111701;28;20024;-70
2023/08/10 05:57:56;;;;;;;4.93;4.38;;;;;;;;;;5112164;28;20015;-71
2023/08/10 06:00:22;;;;;;;5.57;4.43;;;;;;;;;;5111681;28;20066;-70
2023/08/10 06:02:48;;;;;;;5.05;4.47;;;;;;;;;;5112403;28;20023;-71
2023/08/10 06:05:15;;;;;;;4.88;4.00;;;;;;;;;;5111958;28;20036;-69
2023/08/10 06:07:41;;;;;;;5.25;3.67;;;;;;;;;;5114901;28;20016;-71
2023/08/10 06:10:07;;;;;;;6.07;4.40;;;;;;;;;;5117345;28;20027;-71
2023/08/10 06:12:33;;;;;;;5.70;3.60;;;;;;;;;;5116262;28;20476;-71
2023/08/10 06:14:59;;;;;;;4.57;3.78;;;;;;;;;;5116527;28;20494;-70
2023/08/10 06:17:26;;;;;;;5.22;3.53;;;;;;;;;;5097986;28;20384;-71
2023/08/10 06:19:52;;;;;;;3.55;3.10;;;;;;;;;;5115517;28;20023;-70
2023/08/10 06:22:19;;;;;;;5.00;3.78;;;;;;;;;;5115344;28;20027;-70
2023/08/10 06:24:45;;;;;;;3.75;3.45;;;;;;;;;;5116124;28;20023;-70
2023/08/10 06:27:11;;;;;;;4.63;3.50;;;;;;;;;;5122606;27;20020;-71
2023/08/10 06:29:38;;;;;;;3.45;3.08;;;;;;;;;;5136438;27;20047;-71
2023/08/10 06:32:07;;;;;;;3.95;3.55;;;;;;;;;;5136628;27;20023;-71
2023/08/10 06:34:34;;;;;;;3.67;3.38;;;;;;;;;;5135862;27;20468;-70
2023/08/10 06:37:00;;;;;;;3.95;3.10;;;;;;;;;;5136569;27;20020;-72
2023/08/10 06:39:27;;;;;;;3.30;3.00;;;;;;;;;;5135353;27;20029;-71
2023/08/10 06:41:53;;;;;;;5.40;3.30;;;;;;;;;;5136232;27;20026;-71
2023/08/10 06:44:19;;;;;;;3.58;3.20;;;;;;;;;;5135566;27;20027;-71
2023/08/10 06:46:45;;;;;;;3.10;2.80;;;;;;;;;;5136212;27;20539;-71
2023/08/10 06:49:11;;;;;;;2.75;2.50;;;;;;;;;;5136167;27;20016;-71
2023/08/10 06:51:38;;;;;;;9.23;3.15;;;;;;;;;;5135233;27;20015;-71
2023/08/10 06:54:04;;;;;;;3.03;2.80;;;;;;;;;;5136038;27;20464;-71
2023/08/10 06:56:30;;;;;;;3.60;3.08;;;;;;;;;;5135376;27;20031;-70
2023/08/10 06:58:56;;;;;;;2.83;2.60;;;;;;;;;;5136015;27;20026;-71
2023/08/10 07:01:22;;;;;;;5.38;3.00;;;;;;;;;;5135171;27;20072;-70
2023/08/10 07:03:48;;;;;;;5.07;3.20;;;;;;;;;;5135932;27;20113;-71
2023/08/10 07:06:16;;;;;;;3.08;2.63;;;;;;;;;;5135765;27;20015;-70
2023/08/10 07:08:42;;;;;;;4.07;2.80;;;;;;;;;;5135383;27;20073;-70
2023/08/10 07:11:08;;;;;;;5.32;3.20;;;;;;;;;;5135650;27;20031;-70
2023/08/10 07:13:33;;;;;;;3.15;2.83;;;;;;;;;;5135068;27;20019;-70
2023/08/10 07:15:59;;;;;;;8.95;3.08;;;;;;;;;;5135812;27;20031;-70
2023/08/10 07:18:26;;;;;;;8.55;3.30;;;;;;;;;;5133963;27;20483;-70
2023/08/10 07:20:52;;;;;;;5.22;2.50;;;;;;;;;;5135400;27;20035;-70
2023/08/10 07:23:20;;;;;;;18.05;3.08;;;;;;;;;;5135173;27;20027;-70
2023/08/10 07:25:46;;;;;;;8.98;2.55;;;;;;;;;;5135309;27;20024;-70
2023/08/10 07:28:12;;;;;;;5.18;2.60;;;;;;;;;;5119483;27;20089;-71
2023/08/10 07:30:38;;;;;;;2.20;2.00;;;;;;;;;;5113853;28;20104;-70
2023/08/10 07:33:04;;;;;;;2.10;1.80;;;;;;;;;;5114762;28;20024;-70
2023/08/10 07:35:30;;;;;;;5.13;2.42;;;;;;;;;;5113745;28;20023;-70
2023/08/10 07:37:56;;;;;;;6.75;2.63;;;;;;;;;;5114621;28;20525;-71
2023/08/10 07:40:23;;;;;;;2.33;2.13;;;;;;;;;;5113727;28;20028;-70
2023/08/10 07:42:49;;;;;;;2.58;2.08;;;;;;;;;;5114650;28;20016;-70
2023/08/10 07:45:15;;;;;;;3.35;2.58;;;;;;;;;;5114262;28;20063;-71
2023/08/10 07:47:41;;;;;;;4.57;2.58;;;;;;;;;;5113562;28;20020;-70
2023/08/10 07:50:07;;;;;;;2.67;2.03;;;;;;;;;;5114104;28;20507;-71
2023/08/10 07:52:33;;;;;;;3.20;2.22;;;;;;;;;;5113625;28;20048;-70
2023/08/10 07:54:59;;;;;;;2.65;2.45;;;;;;;;;;5114481;28;20062;-72
2023/08/10 07:57:25;;;;;;;4.07;2.10;;;;;;;;;;5113726;28;20027;-71
2023/08/10 07:59:52;;;;;;;5.22;1.92;;;;;;;;;;5114221;28;20031;-71
2023/08/10 08:02:18;;;;;;;2.92;2.47;;;;;;;;;;5114038;28;20164;-71
2023/08/10 08:04:44;;;;;;;15.80;3.47;;;;;;;;;;5113327;28;20439;-71
2023/08/10 08:07:10;;;;;;;2.97;2.22;;;;;;;;;;5114406;28;20026;-71
2023/08/10 08:09:36;;;;;;;3.85;2.10;;;;;;;;;;5113175;28;20384;-70
2023/08/10 08:12:02;;;;;;;3.20;2.05;;;;;;;;;;5113830;28;20094;-71
2023/08/10 08:14:28;;;;;;;4.13;2.63;;;;;;;;;;5094905;28;20026;-70
2023/08/10 08:16:53;;;;;;;3.25;2.10;;;;;;;;;;5113751;28;20019;-70
2023/08/10 08:19:19;;;;;;;4.15;2.30;;;;;;;;;;5113911;28;20422;-70
2023/08/10 08:21:48;;;;;;;2.80;2.00;;;;;;;;;;5113138;28;20024;-71
2023/08/10 08:24:14;;;;;;;2.28;2.00;;;;;;;;;;5113805;28;20024;-70
2023/08/10 08:26:40;;;;;;;4.50;2.50;;;;;;;;;;5115223;27;20027;-70
2023/08/10 08:29:06;;;;;;;2.92;2.55;;;;;;;;;;5132792;27;20039;-71
2023/08/10 08:31:33;;;;;;;4.80;2.20;;;;;;;;;;5133271;27;20034;-70
2023/08/10 08:33:59;;;;;;;3.85;2.45;;;;;;;;;;5134255;27;20038;-71
2023/08/10 08:36:25;;;;;;;3.92;2.70;;;;;;;;;;5133670;27;20019;-70
2023/08/10 08:38:51;;;;;;;3.60;2.65;;;;;;;;;;5138076;27;20106;-70
2023/08/10 08:41:21;;;;;;;4.38;2.50;;;;;;;;;;5142091;27;20019;-70
2023/08/10 08:43:48;;;;;;;2.58;2.22;;;;;;;;;;5142600;27;20026;-71
2023/08/10 08:46:14;;;;;;;2.97;2.75;;;;;;;;;;5142193;27;20031;-71
2023/08/10 08:48:41;;;;;;;4.03;2.85;;;;;;;;;;5136048;27;20468;-70
2023/08/10 08:51:07;;;;;;;7.50;2.40;;;;;;;;;;5135021;27;20030;-70
2023/08/10 08:53:34;;;;;;;3.45;2.55;;;;;;;;;;5135609;27;20098;-70
2023/08/10 08:56:00;;;;;;;4.75;2.70;;;;;;;;;;5145161;27;20023;-71
2023/08/10 08:58:26;;;;;;;5.03;3.35;;;;;;;;;;5143266;27;20384;-71
2023/08/10 09:00:52;;;;;;;3.42;3.13;;;;;;;;;;5144228;27;20020;-71
2023/08/10 09:03:25;;;;;;;4.13;3.30;;;;;;;;;;5143861;27;20349;-71
2023/08/10 09:05:52;;;;;;;3.45;2.78;;;;;;;;;;5141849;27;20023;-71
2023/08/10 09:08:19;;;;;;;4.53;3.25;;;;;;;;;;5138368;27;20028;-71
2023/08/10 09:10:46;;;;;;;4.00;3.00;;;;;;;;;;5140442;27;20577;-71
2023/08/10 09:13:13;;;;;;;3.65;2.72;;;;;;;;;;5136812;27;20016;-72
2023/08/10 09:15:39;;;;;;;4.13;3.00;;;;;;;;;;5139134;27;20471;-71
2023/08/10 09:18:06;;;;;;;3.30;2.20;;;;;;;;;;5139880;27;20023;-70
2023/08/10 09:20:32;;;;;;;2.70;2.50;;;;;;;;;;5136112;27;20019;-70
2023/08/10 09:22:59;;;;;;;8.50;3.42;;;;;;;;;;5134877;27;20023;-71
2023/08/10 09:25:26;;;;;;;3.72;3.00;;;;;;;;;;5134060;27;20023;-70
2023/08/10 09:27:52;;;;;;;4.55;2.72;;;;;;;;;;5121728;27;20027;-70
2023/08/10 09:30:19;;;;;;;4.32;2.70;;;;;;;;;;5112937;28;20088;-71
2023/08/10 09:32:45;;;;;;;5.93;2.95;;;;;;;;;;5112615;28;20138;-71
2023/08/10 09:35:15;;;;;;;4.00;2.75;;;;;;;;;;5112947;28;20054;-72
2023/08/10 09:37:41;;;;;;;4.75;2.80;;;;;;;;;;5112889;28;20020;-70
2023/08/10 09:40:10;;;;;;;4.50;2.72;;;;;;;;;;5112662;28;20472;-70
2023/08/10 09:42:36;;;;;;;3.65;2.92;;;;;;;;;;5113757;28;20030;-71
2023/08/10 09:45:08;;;;;;;5.38;2.63;;;;;;;;;;5114364;28;20024;-70
2023/08/10 09:47:36;;;;;;;3.60;2.50;;;;;;;;;;5112307;28;20034;-71
2023/08/10 09:50:05;;;;;;;3.60;2.80;;;;;;;;;;5119457;28;20034;-70
2023/08/10 09:52:31;;;;;;;5.90;2.85;;;;;;;;;;5124919;28;20125;-70
2023/08/10 09:54:57;;;;;;;4.00;2.90;;;;;;;;;;5123661;28;20023;-71
2023/08/10 09:57:24;;;;;;;3.70;2.67;;;;;;;;;;5123934;28;20353;-70
2023/08/10 09:59:54;;;;;;;4.43;3.22;;;;;;;;;;5124261;28;20599;-71
2023/08/10 10:02:20;;;;;;;6.22;2.72;;;;;;;;;;5124126;28;20051;-71
2023/08/10 10:04:47;;;;;;;3.70;2.42;;;;;;;;;;5117655;28;20027;-71
2023/08/10 10:07:13;;;;;;;5.00;3.17;;;;;;;;;;5119476;28;20024;-71
2023/08/10 10:09:40;;;;;;;4.68;3.42;;;;;;;;;;5120085;28;20114;-71
2023/08/10 10:12:10;;;;;;;3.15;2.83;;;;;;;;;;5115273;28;20020;-71
2023/08/10 10:14:38;;;;;;;;;;;22.20;99.90;;;;;;5113101;28;20077;-71
2023/08/10 10:17:05;;;;;;;3.70;2.75;;;22.50;99.90;;;;;;5112455;28;19952;-71
2023/08/10 10:19:33;;;;;;;5.22;3.50;;;22.70;99.90;;;;;;5112193;28;20430;-71
2023/08/10 10:22:00;;;;;;;5.95;3.30;;;22.90;99.90;;;;;;5112524;28;20035;-71
2023/08/10 10:24:31;;;;;;;3.45;2.30;;;22.90;99.90;;;;;;5112298;28;20035;-70
2023/08/10 10:27:05;;;;;;;3.00;2.50;;;23.00;99.90;;;;;;5116459;28;20375;-71
2023/08/10 10:29:38;;;;;;;3.90;2.83;;;;;;;;;;5131522;28;20103;-70
2023/08/10 10:32:14;;;;;;;7.25;3.03;;;;;;;;;;5132631;28;20114;-71
2023/08/10 10:34:41;;;;;;;2.53;2.10;;;;;;;;;;5131838;28;20027;-71
2023/08/10 10:37:12;;;;;;;6.53;2.78;;;;;;;;;;5132642;28;20026;-71
2023/08/10 10:39:39;;;;;;;3.33;2.60;;;;;;;;;;5131931;28;20031;-70
2023/08/10 10:42:05;;;;;;;3.53;2.50;;;;;;;;;;5132430;28;20030;-71
2023/08/10 10:45:00;;;;;;;5.13;2.92;;;24.40;99.90;;;;;;5132289;28;20042;-71
2023/08/10 10:47:46;;;;;;;3.65;3.35;;;24.40;99.90;;;;;;5124756;28;20039;-71
2023/08/10 10:50:22;;;;;;;2.90;2.40;;;24.20;99.90;;;;;;5132406;28;20388;-71
2023/08/10 10:53:02;;;;;;;2.50;2.30;;;24.10;99.90;;;;;;5114578;27;20421;-71
2023/08/10 10:55:35;;;;;;;4.30;2.35;;;24.10;99.90;;;;;;5136262;27;20384;-72
2023/08/10 10:58:05;;;;;;;2.72;2.30;;;24.20;99.90;;;;;;5136363;27;20561;-71
2023/08/10 11:00:31;;;;;;;4.68;2.60;;;24.40;99.90;;;;;;5136098;27;20019;-71
2023/08/10 11:02:57;;;;;;;4.05;2.30;;;24.60;99.90;;;;;;5135695;27;20076;-70
2023/08/10 11:05:23;;;;;;;5.55;2.95;;;24.80;99.90;;;;;;5135921;27;20357;-71
2023/08/10 11:07:50;;;;;;;4.43;2.65;;;24.80;99.90;;;;;;5135329;27;20159;-71
2023/08/10 11:10:19;;;;;;;7.82;3.20;;;24.90;99.90;;;;;;5135800;27;20031;-71
2023/08/10 11:12:45;;;;;;;8.05;3.45;;;25.00;99.90;;;;;;5116711;27;20038;-71
2023/08/10 11:15:13;;;;;;;3.22;2.85;;;25.10;99.90;;;;;;5135858;27;20026;-71
2023/08/10 11:17:53;;;;;;;2.72;2.50;;;25.20;99.90;;;;;;5134790;27;20383;-71
2023/08/10 11:20:21;;;;;;;5.43;2.83;;;25.30;99.90;;;;;;5135531;27;20032;-71
2023/08/10 11:22:47;;;;;;;5.07;2.42;;;25.50;99.40;;;;;;5134775;27;20031;-71
2023/08/10 11:25:16;;;;;;;4.63;2.60;;;25.70;99.90;;;;;;5135826;27;20051;-72
2023/08/10 11:27:43;;;;;;;3.90;2.60;;;25.80;99.90;;;;;;5123911;27;20030;-71
2023/08/10 11:30:10;;;;;;;7.95;3.30;;;26.00;99.90;;;;;;5115517;28;20601;-72
2023/08/10 11:32:40;;;;;;;3.70;2.70;;;26.20;99.90;;;;;;5114119;28;20024;-71
2023/08/10 11:35:08;;;;;;;;;;;;;;;;;;5115517;28;20119;-72
2023/08/10 11:37:44;;;;;;;2.33;2.13;;;;;;;;;;5114554;28;19910;-71
2023/08/10 11:40:17;;;;;;;4.85;1.98;;;;;;;;;;5114846;28;20028;-72
2023/08/10 11:42:47;;;;;;;2.65;2.45;;;;;;;;;;5113575;28;20028;-71
2023/08/10 11:45:20;;;;;;;4.57;3.15;;;;;;;;;;5114174;28;20023;-71
2023/08/10 11:47:50;;;;;;;4.47;2.72;;;;;;;;;;5113538;28;20035;-71
2023/08/10 11:50:21;;;;;;;3.03;1.98;;;;;;;;;;5114599;28;20035;-71
2023/08/10 11:52:49;;;;;;;6.10;2.80;;;;;;;;;;5113737;28;20450;-71
2023/08/10 11:55:16;;;;;;;4.45;2.65;;;27.40;99.90;;;;;;5114426;28;20031;-72
2023/08/10 11:57:42;;;;;;;3.42;2.50;;;27.50;99.90;;;;;;5113519;28;20027;-73
2023/08/10 12:00:33;;;;;;;4.25;2.47;;;27.40;99.90;;;;;;5114364;28;20035;-72
2023/08/10 12:03:03;;;;;;;3.40;2.20;;;27.40;99.90;;;;;;5113359;28;20024;-71
2023/08/10 12:05:35;;;;;;;2.13;1.90;;;27.40;93.80;;;;;;5114189;28;20016;-72
2023/08/10 12:08:06;;;;;;;4.25;2.50;;;;;;;;;;5114057;28;20020;-72
2023/08/10 12:10:31;;;;;;;;;;;;;;;;;;5114235;28;20088;-71
2023/08/10 12:12:58;;;;;;;2.72;2.33;;;;;;;;;;5113499;28;20043;-71
2023/08/10 12:15:24;;;;;;;2.25;2.05;;;;;;;;;;5113838;28;20520;-72
2023/08/10 12:17:50;;;;;;;3.17;2.00;;;;;;;;;;5113229;28;20027;-71
2023/08/10 12:20:18;;;;;;;2.80;2.45;;;;;;;;;;5112755;28;20024;-72
2023/08/10 12:22:44;;;;;;;2.50;2.25;;;28.20;99.90;;;;;;5113115;28;20016;-71
2023/08/10 12:25:09;;;;;;;3.65;2.10;;;28.60;99.90;;;;;;5113654;28;20030;-71
2023/08/10 12:27:35;;;;;;;4.78;2.70;;;28.60;91.70;;;;;;5123384;27;20062;-71
2023/08/10 12:30:01;;;;;;;3.17;2.40;;;28.50;90.80;;;;;;5133023;27;20043;-71
2023/08/10 12:32:26;;;;;;;2.58;2.38;;;28.50;91.50;;;;;;5134153;27;20023;-71
2023/08/10 12:34:52;;;;;;;2.42;2.20;;;28.40;95.30;;;;;;5133263;27;20031;-71
2023/08/10 12:37:17;;;;;;;4.60;2.50;;;28.60;96.50;;;;;;5134120;27;20030;-72
2023/08/10 12:39:43;;;;;;;3.30;2.15;;;29.00;96.60;;;;;;5133155;27;20098;-71
2023/08/10 12:42:08;;;;;;;2.50;2.20;;;29.10;88.00;;;;;;5133773;27;20035;-73
2023/08/10 12:44:34;;;;;;;3.13;2.35;;;29.40;86.70;;;;;;5134021;27;20130;-71
2023/08/10 12:47:01;;;;;;;4.22;2.28;;;29.20;86.90;;;;;;5133008;27;20846;-71
2023/08/10 12:49:26;;;;;;;3.17;2.33;;;28.90;85.70;;;;;;5133691;27;20038;-71
2023/08/10 12:51:52;;;;;;;2.60;2.40;;;29.00;86.50;;;;;;5132670;27;20031;-71
2023/08/10 12:54:18;;;;;;;2.63;2.42;;;28.90;85.20;;;;;;5133773;27;20033;-71
2023/08/10 12:56:43;;;;;;;3.22;2.55;;;29.00;85.50;;;;;;5132895;27;20031;-71
2023/08/10 12:59:09;;;;;;;4.95;2.47;;;29.00;84.20;;;;;;5133821;27;20110;-71
2023/08/10 13:01:34;;;;;;;3.42;2.47;;;29.00;84.60;;;;;;5133609;27;20379;-71
2023/08/10 13:04:00;;;;;;;3.53;2.60;;;29.00;83.80;;;;;;5132688;27;20087;-71
2023/08/10 13:06:26;;;;;;;2.40;2.00;;;28.90;84.70;;;;;;5133161;27;20024;-71
2023/08/10 13:08:55;;;;;;;2.80;2.30;;;28.90;83.40;;;;;;5132440;27;20361;-71
2023/08/10 13:11:21;;;;;;;3.13;2.50;;;28.80;83.70;;;;;;5133425;27;20471;-71
2023/08/10 13:13:47;;;;;;;2.40;2.17;;;28.80;83.30;;;;;;5132701;27;20031;-71
2023/08/10 13:16:12;;;;;;;4.60;2.33;;;28.70;83.60;;;;;;5133012;27;20106;-71
2023/08/10 13:18:38;;;;;;;2.38;2.08;;;28.70;82.60;;;;;;5133268;27;20027;-72
2023/08/10 13:21:03;;;;;;;2.20;2.00;;;28.60;81.70;;;;;;5132779;27;20519;-71
2023/08/10 13:23:29;;;;;;;2.53;2.22;;;28.70;82.30;;;;;;5133361;27;20361;-71
2023/08/10 13:25:54;;;;;;;2.75;2.33;;;28.90;81.30;;;;;;5132763;27;20062;-71
2023/08/10 13:28:20;;;;;;;3.38;2.55;;;29.10;81.20;;;;;;5116468;27;20071;-71
2023/08/10 13:30:46;;;;;;;4.57;2.22;;;29.30;81.50;;;;;;5111848;28;20067;-71
2023/08/10 13:33:11;;;;;;;2.53;2.22;;;29.40;80.50;;;;;;5112686;28;20020;-71
2023/08/10 13:35:37;;;;;;;5.28;2.80;;;29.40;80.80;;;;;;5112778;28;20020;-71
2023/08/10 13:38:02;;;;;;;3.08;2.25;;;29.70;80.00;;;;;;5111830;28;20026;-71
2023/08/10 13:40:28;;;;;;;3.15;2.10;;;29.70;79.70;;;;;;5112650;28;20028;-71
2023/08/10 13:42:54;;;;;;;2.28;2.03;;;29.60;78.70;;;;;;5112020;28;20024;-71
2023/08/10 13:45:19;;;;;;;2.08;1.90;;;29.70;79.10;;;;;;5112284;28;20020;-71
2023/08/10 13:47:45;;;;;;;4.75;2.45;;;30.00;79.10;;;;;;5111899;28;20436;-70
2023/08/10 13:50:11;;;;;;;4.95;2.40;;;30.30;85.90;;;;;;5112487;28;20035;-71
2023/08/10 13:52:37;;;;;;;2.97;2.20;;;30.20;87.30;;;;;;5112666;28;20390;-71
2023/08/10 13:55:04;;;;;;;3.90;2.22;;;29.50;87.80;;;;;;5111640;28;20611;-72
2023/08/10 13:57:29;;;;;;;2.53;2.33;;;29.40;89.20;;;;;;5112358;28;20032;-72
2023/08/10 13:59:55;;;;;;;3.08;2.50;;;29.50;88.80;;;;;;5111616;28;20426;-71
2023/08/10 14:02:20;;;;;;;6.80;2.83;;;29.60;88.60;;;;;;5112662;28;20055;-71
2023/08/10 14:04:46;;;;;;;3.80;2.30;;;29.70;88.50;;;;;;5111370;28;20027;-71